createdAt,value
2018-05-29T00:00:01.158Z,45.40
2018-05-29T00:00:33.187Z,45.40
2018-05-29T00:01:05.207Z,45.40
2018-05-29T00:01:37.245Z,45.30
2018-05-29T00:02:09.403Z,45.30
2018-05-29T00:02:42.238Z,45.20
2018-05-29T00:03:14.249Z,45.20
2018-05-29T00:03:46.304Z,45.20
2018-05-29T00:04:18.327Z,45.20
2018-05-29T00:04:51.129Z,45.10
2018-05-29T00:05:23.180Z,45.10
2018-05-29T00:05:55.931Z,45.30
2018-05-29T00:06:27.970Z,45.30
2018-05-29T00:07:00.765Z,45.30
2018-05-29T00:07:32.792Z,45.30
2018-05-29T00:08:05.582Z,45.50
2018-05-29T00:08:37.601Z,45.50
2018-05-29T00:09:09.641Z,45.40
2018-05-29T00:09:41.651Z,45.30
2018-05-29T00:10:13.686Z,45.20
2018-05-29T00:10:45.714Z,45.10
2018-05-29T00:11:18.543Z,45.30
2018-05-29T00:11:50.563Z,45.20
2018-05-29T00:12:22.587Z,45.20
2018-05-29T00:12:55.393Z,45.60
2018-05-29T00:13:27.593Z,45.60
2018-05-29T00:13:59.598Z,45.80
2018-05-29T00:14:31.612Z,46.00
2018-05-29T00:15:04.415Z,46.10
2018-05-29T00:15:36.464Z,46.10
2018-05-29T00:16:08.498Z,46.30
2018-05-29T00:16:40.553Z,46.40
2018-05-29T00:17:12.578Z,46.40
2018-05-29T00:17:45.375Z,46.10
2018-05-29T00:18:17.404Z,46.00
2018-05-29T00:18:50.256Z,46.20
2018-05-29T00:19:22.275Z,46.10
2018-05-29T00:19:54.334Z,46.30
2018-05-29T00:20:26.348Z,46.40
2018-05-29T00:20:58.382Z,46.40
2018-05-29T00:21:31.187Z,46.50
2018-05-29T00:22:03.209Z,46.50
2018-05-29T00:22:35.235Z,46.50
2018-05-29T00:23:07.295Z,46.60
2018-05-29T00:23:40.129Z,46.70
2018-05-29T00:24:12.131Z,46.70
2018-05-29T00:24:44.157Z,46.50
2018-05-29T00:25:16.177Z,46.50
2018-05-29T00:25:48.229Z,46.50
2018-05-29T00:26:20.272Z,46.60
2018-05-29T00:26:52.296Z,46.60
2018-05-29T00:27:24.322Z,46.40
2018-05-29T00:27:57.119Z,46.50
2018-05-29T00:28:29.156Z,46.50
2018-05-29T00:29:01.969Z,46.70
2018-05-29T00:29:34.000Z,46.70
2018-05-29T00:30:06.025Z,46.70
2018-05-29T00:30:38.816Z,46.70
2018-05-29T00:31:10.849Z,46.70
2018-05-29T00:31:43.644Z,46.60
2018-05-29T00:32:15.687Z,46.60
2018-05-29T00:32:47.724Z,46.50
2018-05-29T00:33:20.509Z,46.50
2018-05-29T00:33:52.549Z,46.50
2018-05-29T00:34:24.594Z,46.50
2018-05-29T00:34:57.389Z,46.50
2018-05-29T00:35:29.402Z,46.50
2018-05-29T00:36:02.213Z,46.50
2018-05-29T00:36:34.266Z,46.40
2018-05-29T00:37:06.299Z,46.50
2018-05-29T00:37:38.328Z,46.50
2018-05-29T00:38:11.134Z,46.40
2018-05-29T00:38:43.155Z,46.40
2018-05-29T00:39:15.139Z,46.40
2018-05-29T00:39:47.186Z,46.40
2018-05-29T00:40:19.231Z,46.40
2018-05-29T00:40:51.254Z,46.40
2018-05-29T00:41:24.043Z,46.40
2018-05-29T00:41:57.224Z,46.20
2018-05-29T00:42:29.301Z,46.20
2018-05-29T00:43:01.310Z,46.10
2018-05-29T00:43:33.432Z,46.10
2018-05-29T00:44:05.425Z,45.80
2018-05-29T00:44:37.446Z,45.80
2018-05-29T00:45:10.319Z,45.70
2018-05-29T00:45:42.340Z,45.60
2018-05-29T00:46:14.355Z,45.70
2018-05-29T00:46:46.389Z,45.50
2018-05-29T00:47:19.172Z,45.60
2018-05-29T00:47:51.223Z,45.60
2018-05-29T00:48:23.996Z,45.60
2018-05-29T00:48:56.035Z,45.50
2018-05-29T00:49:28.832Z,45.60
2018-05-29T00:50:00.863Z,45.50
2018-05-29T00:50:33.649Z,45.50
2018-05-29T00:51:05.674Z,45.50
2018-05-29T00:51:38.477Z,45.50
2018-05-29T00:52:10.502Z,45.50
2018-05-29T00:52:43.283Z,45.50
2018-05-29T00:53:15.305Z,45.50
2018-05-29T00:53:48.107Z,45.90
2018-05-29T00:54:20.149Z,45.90
2018-05-29T00:54:52.174Z,46.00
2018-05-29T00:55:24.959Z,46.40
2018-05-29T00:55:56.990Z,46.30
2018-05-29T00:56:29.051Z,46.40
2018-05-29T00:57:01.852Z,46.80
2018-05-29T00:57:33.874Z,46.70
2018-05-29T00:58:06.675Z,47.10
2018-05-29T00:58:38.704Z,47.10
2018-05-29T00:59:10.751Z,47.10
2018-05-29T00:59:43.542Z,47.30
2018-05-29T01:00:15.602Z,47.20
2018-05-29T01:00:47.661Z,47.20
2018-05-29T01:01:19.662Z,47.30
2018-05-29T01:01:52.483Z,47.40
2018-05-29T01:02:24.487Z,47.30
2018-05-29T01:02:57.270Z,47.40
2018-05-29T01:03:29.307Z,47.40
2018-05-29T01:04:02.091Z,47.60
2018-05-29T01:04:34.886Z,47.70
2018-05-29T01:05:06.898Z,47.70
2018-05-29T01:05:39.686Z,47.80
2018-05-29T01:06:11.715Z,47.80
2018-05-29T01:06:44.531Z,48.00
2018-05-29T01:07:16.576Z,47.90
2018-05-29T01:07:48.627Z,48.00
2018-05-29T01:08:20.635Z,48.00
2018-05-29T01:08:53.420Z,48.10
2018-05-29T01:09:25.436Z,47.90
2018-05-29T01:09:57.459Z,48.00
2018-05-29T01:10:29.487Z,48.00
2018-05-29T01:11:01.525Z,47.90
2018-05-29T01:11:34.304Z,47.90
2018-05-29T01:12:06.329Z,47.90
2018-05-29T01:12:39.169Z,47.80
2018-05-29T01:13:11.155Z,47.90
2018-05-29T01:13:43.983Z,47.90
2018-05-29T01:14:15.994Z,47.80
2018-05-29T01:14:48.041Z,47.80
2018-05-29T01:15:20.819Z,48.30
2018-05-29T01:15:52.841Z,48.00
2018-05-29T01:16:25.670Z,48.10
2018-05-29T01:16:57.675Z,48.00
2018-05-29T01:17:29.713Z,48.00
2018-05-29T01:18:01.740Z,48.10
2018-05-29T01:18:33.799Z,48.10
2018-05-29T01:19:05.810Z,48.10
2018-05-29T01:19:37.836Z,48.10
2018-05-29T01:20:10.603Z,48.00
2018-05-29T01:20:42.631Z,48.00
2018-05-29T01:21:15.423Z,47.30
2018-05-29T01:21:47.492Z,47.90
2018-05-29T01:22:19.506Z,47.90
2018-05-29T01:22:52.299Z,47.80
2018-05-29T01:23:24.364Z,47.70
2018-05-29T01:23:56.379Z,47.70
2018-05-29T01:24:29.168Z,47.60
2018-05-29T01:25:01.190Z,47.60
2018-05-29T01:25:33.217Z,47.50
2018-05-29T01:26:05.265Z,47.50
2018-05-29T01:26:37.288Z,47.50
2018-05-29T01:27:09.302Z,47.50
2018-05-29T01:27:42.103Z,47.50
2018-05-29T01:28:14.145Z,47.50
2018-05-29T01:28:46.169Z,47.50
2018-05-29T01:29:18.217Z,47.50
2018-05-29T01:29:50.234Z,47.50
2018-05-29T01:30:22.262Z,47.50
2018-05-29T01:30:54.305Z,47.50
2018-05-29T01:31:26.343Z,47.60
2018-05-29T01:31:59.171Z,47.60
2018-05-29T01:32:31.198Z,47.60
2018-05-29T01:33:03.241Z,47.60
2018-05-29T01:33:35.253Z,47.60
2018-05-29T01:34:08.057Z,47.70
2018-05-29T01:34:40.074Z,47.60
2018-05-29T01:35:12.864Z,47.70
2018-05-29T01:35:44.977Z,47.60
2018-05-29T01:36:16.986Z,47.60
2018-05-29T01:36:49.054Z,47.60
2018-05-29T01:37:21.098Z,47.60
2018-05-29T01:37:53.138Z,47.60
2018-05-29T01:38:25.152Z,47.60
2018-05-29T01:38:57.952Z,47.80
2018-05-29T01:39:30.055Z,48.50
2018-05-29T01:40:02.052Z,47.80
2018-05-29T01:40:34.100Z,47.80
2018-05-29T01:41:06.897Z,47.80
2018-05-29T01:41:38.903Z,47.80
2018-05-29T01:42:10.937Z,47.70
2018-05-29T01:42:42.978Z,47.70
2018-05-29T01:43:14.998Z,47.60
2018-05-29T01:43:46.991Z,47.50
2018-05-29T01:44:19.014Z,47.50
2018-05-29T01:44:51.041Z,47.50
2018-05-29T01:45:23.063Z,47.30
2018-05-29T01:45:55.859Z,47.10
2018-05-29T01:46:27.871Z,47.10
2018-05-29T01:47:00.652Z,47.10
2018-05-29T01:47:32.683Z,47.10
2018-05-29T01:48:04.706Z,47.20
2018-05-29T01:48:36.746Z,47.20
2018-05-29T01:49:08.769Z,47.30
2018-05-29T01:49:40.794Z,47.30
2018-05-29T01:50:13.590Z,47.20
2018-05-29T01:50:45.610Z,47.20
2018-05-29T01:51:18.399Z,47.00
2018-05-29T01:51:50.427Z,47.00
2018-05-29T01:52:23.215Z,46.70
2018-05-29T01:52:55.239Z,46.70
2018-05-29T01:53:27.282Z,46.70
2018-05-29T01:53:59.298Z,46.80
2018-05-29T01:54:31.329Z,47.00
2018-05-29T01:55:03.344Z,46.90
2018-05-29T01:55:35.389Z,47.00
2018-05-29T01:56:07.406Z,47.10
2018-05-29T01:56:39.440Z,47.10
2018-05-29T01:57:11.469Z,47.10
2018-05-29T01:57:44.256Z,47.00
2018-05-29T01:58:16.485Z,47.00
2018-05-29T01:58:48.714Z,46.90
2018-05-29T01:59:21.107Z,47.00
2018-05-29T01:59:53.096Z,47.00
2018-05-29T02:00:25.119Z,47.10
2018-05-29T02:00:57.152Z,47.00
2018-05-29T02:01:29.939Z,47.00
2018-05-29T02:02:01.953Z,47.00
2018-05-29T02:02:34.000Z,46.80
2018-05-29T02:03:06.027Z,46.60
2018-05-29T02:03:38.083Z,46.50
2018-05-29T02:04:10.104Z,46.40
2018-05-29T02:04:42.127Z,46.30
2018-05-29T02:05:14.932Z,46.30
2018-05-29T02:05:46.947Z,46.30
2018-05-29T02:06:19.736Z,46.40
2018-05-29T02:06:51.797Z,46.30
2018-05-29T02:07:23.839Z,46.20
2018-05-29T02:07:55.852Z,46.30
2018-05-29T02:08:27.872Z,46.50
2018-05-29T02:08:59.904Z,46.70
2018-05-29T02:09:31.933Z,46.80
2018-05-29T02:10:04.719Z,47.00
2018-05-29T02:10:36.981Z,47.00
2018-05-29T02:11:09.023Z,47.10
2018-05-29T02:11:41.047Z,47.10
2018-05-29T02:12:13.066Z,47.20
2018-05-29T02:12:45.106Z,47.30
2018-05-29T02:13:17.116Z,47.40
2018-05-29T02:13:49.904Z,47.60
2018-05-29T02:14:21.925Z,47.50
2018-05-29T02:14:54.893Z,47.80
2018-05-29T02:15:26.989Z,47.70
2018-05-29T02:15:59.744Z,47.90
2018-05-29T02:16:31.805Z,47.80
2018-05-29T02:17:03.827Z,47.90
2018-05-29T02:17:36.623Z,48.00
2018-05-29T02:18:08.670Z,48.00
2018-05-29T02:18:40.710Z,48.10
2018-05-29T02:19:12.738Z,48.10
2018-05-29T02:19:45.565Z,48.40
2018-05-29T02:20:17.584Z,48.20
2018-05-29T02:20:50.356Z,48.40
2018-05-29T02:21:22.384Z,48.40
2018-05-29T02:21:55.172Z,48.50
2018-05-29T02:22:27.226Z,48.40
2018-05-29T02:22:59.255Z,48.50
2018-05-29T02:23:32.047Z,48.60
2018-05-29T02:24:04.068Z,48.60
2018-05-29T02:24:36.096Z,48.60
2018-05-29T02:25:08.169Z,48.70
2018-05-29T02:25:40.185Z,48.70
2018-05-29T02:26:12.227Z,48.80
2018-05-29T02:26:44.244Z,48.80
2018-05-29T02:27:17.023Z,48.80
2018-05-29T02:27:49.052Z,48.80
2018-05-29T02:28:21.835Z,48.70
2018-05-29T02:28:53.866Z,48.70
2018-05-29T02:29:25.910Z,48.60
2018-05-29T02:29:57.907Z,48.40
2018-05-29T02:30:29.928Z,48.10
2018-05-29T02:31:02.710Z,47.60
2018-05-29T02:31:35.512Z,47.40
2018-05-29T02:32:07.525Z,47.40
2018-05-29T02:32:40.316Z,47.10
2018-05-29T02:33:12.326Z,47.10
2018-05-29T02:33:45.135Z,47.10
2018-05-29T02:34:17.170Z,47.10
2018-05-29T02:34:49.193Z,47.10
2018-05-29T02:35:21.211Z,47.10
2018-05-29T02:35:53.248Z,47.20
2018-05-29T02:36:25.275Z,47.30
2018-05-29T02:36:57.319Z,47.40
2018-05-29T02:37:29.307Z,47.60
2018-05-29T02:38:01.355Z,47.70
2018-05-29T02:38:33.383Z,47.70
2018-05-29T02:39:05.419Z,47.80
2018-05-29T02:39:38.190Z,47.40
2018-05-29T02:40:10.223Z,47.40
2018-05-29T02:40:42.248Z,47.30
2018-05-29T02:41:14.266Z,46.50
2018-05-29T02:41:46.337Z,47.00
2018-05-29T02:42:18.421Z,46.90
2018-05-29T02:42:50.419Z,46.90
2018-05-29T02:43:22.433Z,46.80
2018-05-29T02:43:55.221Z,46.70
2018-05-29T02:44:27.248Z,46.60
2018-05-29T02:44:59.287Z,46.70
2018-05-29T02:45:31.311Z,46.70
2018-05-29T02:46:03.338Z,47.00
2018-05-29T02:46:35.357Z,47.20
2018-05-29T02:47:07.399Z,47.40
2018-05-29T02:47:39.440Z,47.50
2018-05-29T02:48:11.472Z,47.60
2018-05-29T02:48:43.497Z,47.70
2018-05-29T02:49:15.530Z,47.80
2018-05-29T02:49:48.316Z,48.00
2018-05-29T02:50:20.342Z,47.90
2018-05-29T02:50:53.123Z,48.00
2018-05-29T02:51:25.150Z,48.00
2018-05-29T02:51:57.167Z,48.00
2018-05-29T02:52:29.211Z,48.00
2018-05-29T02:53:01.305Z,48.20
2018-05-29T02:53:33.361Z,48.10
2018-05-29T02:54:05.330Z,48.20
2018-05-29T02:54:37.354Z,48.10
2018-05-29T02:55:09.382Z,48.20
2018-05-29T02:55:41.404Z,48.80
2018-05-29T02:56:13.444Z,47.70
2018-05-29T02:56:45.477Z,47.50
2018-05-29T02:57:18.291Z,47.20
2018-05-29T02:57:50.375Z,47.20
2018-05-29T02:58:22.370Z,47.20
2018-05-29T02:58:54.403Z,47.20
2018-05-29T02:59:27.194Z,47.50
2018-05-29T02:59:59.249Z,47.50
2018-05-29T03:00:31.277Z,47.70
2018-05-29T03:01:03.359Z,47.90
2018-05-29T03:01:35.369Z,48.10
2018-05-29T03:02:08.158Z,48.20
2018-05-29T03:02:40.169Z,48.10
2018-05-29T03:03:12.188Z,48.10
2018-05-29T03:03:44.232Z,48.10
2018-05-29T03:04:16.251Z,48.10
2018-05-29T03:04:49.034Z,48.00
2018-05-29T03:05:21.083Z,48.00
2018-05-29T03:05:53.859Z,47.60
2018-05-29T03:06:25.939Z,47.60
2018-05-29T03:06:57.971Z,47.40
2018-05-29T03:07:30.002Z,47.20
2018-05-29T03:08:02.070Z,47.20
2018-05-29T03:08:34.060Z,47.20
2018-05-29T03:09:06.079Z,47.20
2018-05-29T03:09:38.111Z,47.30
2018-05-29T03:10:10.141Z,47.40
2018-05-29T03:10:42.936Z,47.50
2018-05-29T03:11:14.984Z,47.50
2018-05-29T03:11:47.761Z,47.70
2018-05-29T03:12:19.784Z,47.60
2018-05-29T03:12:52.576Z,48.00
2018-05-29T03:13:24.598Z,47.90
2018-05-29T03:13:56.609Z,48.00
2018-05-29T03:14:28.628Z,48.10
2018-05-29T03:15:00.661Z,48.20
2018-05-29T03:15:33.448Z,48.40
2018-05-29T03:16:05.471Z,48.40
2018-05-29T03:16:38.260Z,48.50
2018-05-29T03:17:10.297Z,48.40
2018-05-29T03:17:43.085Z,48.30
2018-05-29T03:18:15.198Z,48.20
2018-05-29T03:18:47.420Z,48.10
2018-05-29T03:19:19.465Z,47.90
2018-05-29T03:19:51.503Z,47.80
2018-05-29T03:20:23.542Z,47.70
2018-05-29T03:20:55.586Z,47.60
2018-05-29T03:21:28.367Z,47.50
2018-05-29T03:22:00.395Z,47.50
2018-05-29T03:22:32.434Z,47.20
2018-05-29T03:23:04.520Z,47.20
2018-05-29T03:23:36.531Z,47.00
2018-05-29T03:24:08.581Z,46.90
2018-05-29T03:24:40.598Z,46.70
2018-05-29T03:25:12.611Z,46.60
2018-05-29T03:25:45.432Z,46.40
2018-05-29T03:26:17.445Z,46.40
2018-05-29T03:26:49.478Z,46.40
2018-05-29T03:27:22.292Z,46.40
2018-05-29T03:27:54.317Z,46.40
2018-05-29T03:28:26.355Z,46.30
2018-05-29T03:28:58.414Z,46.40
2018-05-29T03:29:30.433Z,46.30
2018-05-29T03:30:02.473Z,46.40
2018-05-29T03:30:34.507Z,45.80
2018-05-29T03:31:06.534Z,46.30
2018-05-29T03:31:38.557Z,46.30
2018-05-29T03:32:11.337Z,46.70
2018-05-29T03:32:43.403Z,46.70
2018-05-29T03:33:16.177Z,46.90
2018-05-29T03:33:48.213Z,46.90
2018-05-29T03:34:20.253Z,46.70
2018-05-29T03:34:53.042Z,46.60
2018-05-29T03:35:25.120Z,46.60
2018-05-29T03:35:57.120Z,46.50
2018-05-29T03:36:29.926Z,46.50
2018-05-29T03:37:01.988Z,46.40
2018-05-29T03:37:34.004Z,46.40
2018-05-29T03:38:06.019Z,46.40
2018-05-29T03:38:38.038Z,46.50
2018-05-29T03:39:10.065Z,46.20
2018-05-29T03:39:42.091Z,46.40
2018-05-29T03:40:14.918Z,46.60
2018-05-29T03:40:46.926Z,46.60
2018-05-29T03:41:18.968Z,46.60
2018-05-29T03:41:51.746Z,46.50
2018-05-29T03:42:23.799Z,46.40
2018-05-29T03:42:55.826Z,46.30
2018-05-29T03:43:27.859Z,46.20
2018-05-29T03:43:59.870Z,46.00
2018-05-29T03:44:31.890Z,46.20
2018-05-29T03:45:04.732Z,46.40
2018-05-29T03:45:36.730Z,46.40
2018-05-29T03:46:08.771Z,46.50
2018-05-29T03:46:40.776Z,46.70
2018-05-29T03:47:12.838Z,46.80
2018-05-29T03:47:44.836Z,46.90
2018-05-29T03:48:16.910Z,47.10
2018-05-29T03:48:48.988Z,47.10
2018-05-29T03:49:21.011Z,47.20
2018-05-29T03:49:53.041Z,47.10
2018-05-29T03:50:25.061Z,47.00
2018-05-29T03:50:57.849Z,46.30
2018-05-29T03:51:29.887Z,46.80
2018-05-29T03:52:02.698Z,46.70
2018-05-29T03:52:34.727Z,46.60
2018-05-29T03:53:06.768Z,46.70
2018-05-29T03:53:39.590Z,46.90
2018-05-29T03:54:11.611Z,46.90
2018-05-29T03:54:43.661Z,46.90
2018-05-29T03:55:15.678Z,46.70
2018-05-29T03:55:48.482Z,46.70
2018-05-29T03:56:20.523Z,46.70
2018-05-29T03:56:52.545Z,46.70
2018-05-29T03:57:24.602Z,46.70
2018-05-29T03:57:57.383Z,47.20
2018-05-29T03:58:30.193Z,46.40
2018-05-29T03:59:02.228Z,46.40
2018-05-29T03:59:34.248Z,46.50
2018-05-29T04:00:07.062Z,46.80
2018-05-29T04:00:39.088Z,46.80
2018-05-29T04:01:11.150Z,46.90
2018-05-29T04:01:43.183Z,47.10
2018-05-29T04:02:15.965Z,48.30
2018-05-29T04:02:48.015Z,47.50
2018-05-29T04:03:20.779Z,47.70
2018-05-29T04:03:52.812Z,47.70
2018-05-29T04:04:25.652Z,47.80
2018-05-29T04:04:57.644Z,47.80
2018-05-29T04:05:29.675Z,47.80
2018-05-29T04:06:01.707Z,47.80
2018-05-29T04:06:33.730Z,47.80
2018-05-29T04:07:05.760Z,47.90
2018-05-29T04:07:37.781Z,47.80
2018-05-29T04:08:10.585Z,47.30
2018-05-29T04:08:42.605Z,47.30
2018-05-29T04:09:14.656Z,47.10
2018-05-29T04:09:47.466Z,46.40
2018-05-29T04:10:19.528Z,46.90
2018-05-29T04:10:52.395Z,47.10
2018-05-29T04:11:24.881Z,47.10
2018-05-29T04:11:57.260Z,47.20
2018-05-29T04:12:29.316Z,47.20
2018-05-29T04:13:01.437Z,47.30
2018-05-29T04:13:33.699Z,47.90
2018-05-29T04:14:05.971Z,48.90
2018-05-29T04:14:38.142Z,50.70
2018-05-29T04:15:11.212Z,50.40
2018-05-29T04:15:43.390Z,50.30
2018-05-29T04:16:15.391Z,47.80
2018-05-29T04:16:47.420Z,48.90
2018-05-29T04:17:19.439Z,49.20
2018-05-29T04:17:51.493Z,48.70
2018-05-29T04:18:23.518Z,47.70
2018-05-29T04:18:56.324Z,48.70
2018-05-29T04:19:28.346Z,48.60
2018-05-29T04:20:01.140Z,50.90
2018-05-29T04:20:33.201Z,50.80
2018-05-29T04:21:05.237Z,50.40
2018-05-29T04:21:37.277Z,50.20
2018-05-29T04:22:10.110Z,50.10
2018-05-29T04:22:42.111Z,50.00
2018-05-29T04:23:14.145Z,49.90
2018-05-29T04:23:46.943Z,48.70
2018-05-29T04:24:18.978Z,48.60
2018-05-29T04:24:51.025Z,48.50
2018-05-29T04:25:23.813Z,49.90
2018-05-29T04:25:55.834Z,49.90
2018-05-29T04:26:27.971Z,50.70
2018-05-29T04:26:59.969Z,49.70
2018-05-29T04:27:32.014Z,49.40
2018-05-29T04:28:04.037Z,48.30
2018-05-29T04:28:36.832Z,48.20
2018-05-29T04:29:08.896Z,48.20
2018-05-29T04:29:40.934Z,48.30
2018-05-29T04:30:13.726Z,48.60
2018-05-29T04:30:45.750Z,48.60
2018-05-29T04:31:17.782Z,48.60
2018-05-29T04:31:50.574Z,48.80
2018-05-29T04:32:22.628Z,48.80
2018-05-29T04:32:55.402Z,49.10
2018-05-29T04:33:27.451Z,49.10
2018-05-29T04:33:59.498Z,49.10
2018-05-29T04:34:31.521Z,49.10
2018-05-29T04:35:04.368Z,49.30
2018-05-29T04:35:36.401Z,49.10
2018-05-29T04:36:08.454Z,49.20
2018-05-29T04:36:40.487Z,50.20
2018-05-29T04:37:12.503Z,49.30
2018-05-29T04:37:45.292Z,49.80
2018-05-29T04:38:17.344Z,49.70
2018-05-29T04:38:49.386Z,49.80
2018-05-29T04:39:22.194Z,50.20
2018-05-29T04:39:54.212Z,50.20
2018-05-29T04:40:26.296Z,50.10
2018-05-29T04:40:58.315Z,50.10
2018-05-29T04:41:30.349Z,50.00
2018-05-29T04:42:03.130Z,50.20
2018-05-29T04:42:35.169Z,50.00
2018-05-29T04:43:07.958Z,50.30
2018-05-29T04:43:40.007Z,50.20
2018-05-29T04:44:12.778Z,50.20
2018-05-29T04:44:44.811Z,50.20
2018-05-29T04:45:17.591Z,50.50
2018-05-29T04:45:49.710Z,50.30
2018-05-29T04:46:21.723Z,50.10
2018-05-29T04:46:53.752Z,49.90
2018-05-29T04:47:25.783Z,50.00
2018-05-29T04:47:58.595Z,50.20
2018-05-29T04:48:30.609Z,50.10
2018-05-29T04:49:02.678Z,50.00
2018-05-29T04:49:34.725Z,50.00
2018-05-29T04:50:06.801Z,49.90
2018-05-29T04:50:38.816Z,49.90
2018-05-29T04:51:11.619Z,49.90
2018-05-29T04:51:43.659Z,49.90
2018-05-29T04:52:15.681Z,49.80
2018-05-29T04:52:48.464Z,49.90
2018-05-29T04:53:20.524Z,49.80
2018-05-29T04:53:53.313Z,49.70
2018-05-29T04:54:25.360Z,49.60
2018-05-29T04:54:57.370Z,49.60
2018-05-29T04:55:30.173Z,49.50
2018-05-29T04:56:02.238Z,49.40
2018-05-29T04:56:34.268Z,49.40
2018-05-29T04:57:06.303Z,49.50
2018-05-29T04:57:39.121Z,49.40
2018-05-29T04:58:11.145Z,49.40
2018-05-29T04:58:43.166Z,49.40
2018-05-29T04:59:15.943Z,49.50
2018-05-29T04:59:48.034Z,49.40
2018-05-29T05:00:20.051Z,49.50
2018-05-29T05:00:52.102Z,49.60
2018-05-29T05:01:24.906Z,49.70
2018-05-29T05:01:56.923Z,49.70
2018-05-29T05:02:28.968Z,49.80
2018-05-29T05:03:01.747Z,49.80
2018-05-29T05:03:33.784Z,49.70
2018-05-29T05:04:06.591Z,49.80
2018-05-29T05:04:38.611Z,49.70
2018-05-29T05:05:11.399Z,49.80
2018-05-29T05:05:43.419Z,49.80
2018-05-29T05:06:16.223Z,50.30
2018-05-29T05:06:48.248Z,50.20
2018-05-29T05:07:21.090Z,50.10
2018-05-29T05:07:53.081Z,50.00
2018-05-29T05:08:25.114Z,50.10
2018-05-29T05:08:57.909Z,50.10
2018-05-29T05:09:29.927Z,50.10
2018-05-29T05:10:02.724Z,50.30
2018-05-29T05:10:34.745Z,50.20
2018-05-29T05:11:08.883Z,50.30
2018-05-29T05:11:40.918Z,50.30
2018-05-29T05:12:12.935Z,50.30
2018-05-29T05:12:44.974Z,50.40
2018-05-29T05:13:16.995Z,50.50
2018-05-29T05:13:49.020Z,50.50
2018-05-29T05:14:21.094Z,50.50
2018-05-29T05:14:53.123Z,50.50
2018-05-29T05:15:25.188Z,50.50
2018-05-29T05:15:57.233Z,50.50
2018-05-29T05:16:29.262Z,50.50
2018-05-29T05:17:02.077Z,50.50
2018-05-29T05:17:34.100Z,50.50
2018-05-29T05:18:06.136Z,50.50
2018-05-29T05:18:38.942Z,50.40
2018-05-29T05:19:10.976Z,50.40
2018-05-29T05:19:43.007Z,50.40
2018-05-29T05:20:15.832Z,50.00
2018-05-29T05:20:47.833Z,50.00
2018-05-29T05:21:20.640Z,50.10
2018-05-29T05:21:52.652Z,50.00
2018-05-29T05:22:25.455Z,50.00
2018-05-29T05:22:57.474Z,50.00
2018-05-29T05:23:30.264Z,49.80
2018-05-29T05:24:02.288Z,49.80
2018-05-29T05:24:35.088Z,49.90
2018-05-29T05:25:07.148Z,49.90
2018-05-29T05:25:39.174Z,50.00
2018-05-29T05:26:11.217Z,50.00
2018-05-29T05:26:43.991Z,49.90
2018-05-29T05:27:16.026Z,49.80
2018-05-29T05:27:48.881Z,49.70
2018-05-29T05:28:20.888Z,49.60
2018-05-29T05:28:52.983Z,49.50
2018-05-29T05:29:25.036Z,49.50
2018-05-29T05:29:57.099Z,49.50
2018-05-29T05:30:29.079Z,49.50
2018-05-29T05:31:01.108Z,49.60
2018-05-29T05:31:33.898Z,49.70
2018-05-29T05:32:05.924Z,49.70
2018-05-29T05:32:38.725Z,49.50
2018-05-29T05:33:10.754Z,49.40
2018-05-29T05:33:43.544Z,49.30
2018-05-29T05:34:15.590Z,49.30
2018-05-29T05:34:47.613Z,49.40
2018-05-29T05:35:19.692Z,49.20
2018-05-29T05:35:52.456Z,48.70
2018-05-29T05:36:24.483Z,48.60
2018-05-29T05:36:56.514Z,48.50
2018-05-29T05:37:28.538Z,48.70
2018-05-29T05:38:00.559Z,48.30
2018-05-29T05:38:32.583Z,48.30
2018-05-29T05:39:04.620Z,48.10
2018-05-29T05:39:36.654Z,48.20
2018-05-29T05:40:08.678Z,48.20
2018-05-29T05:40:40.697Z,48.30
2018-05-29T05:41:13.499Z,48.40
2018-05-29T05:41:45.524Z,48.40
2018-05-29T05:42:18.317Z,48.40
2018-05-29T05:42:50.350Z,48.40
2018-05-29T05:43:22.384Z,48.30
2018-05-29T05:43:54.430Z,48.10
2018-05-29T05:44:26.446Z,48.20
2018-05-29T05:44:58.475Z,48.30
2018-05-29T05:45:30.494Z,48.30
2018-05-29T05:46:03.336Z,48.80
2018-05-29T05:46:35.336Z,48.00
2018-05-29T05:47:07.384Z,47.90
2018-05-29T05:47:39.399Z,47.80
2018-05-29T05:48:11.448Z,47.70
2018-05-29T05:48:43.507Z,47.50
2018-05-29T05:49:15.537Z,47.50
2018-05-29T05:49:47.718Z,47.30
2018-05-29T05:50:19.759Z,47.50
2018-05-29T05:50:51.791Z,47.50
2018-05-29T05:51:23.798Z,47.40
2018-05-29T05:51:55.825Z,47.20
2018-05-29T05:52:28.628Z,47.00
2018-05-29T05:53:00.643Z,46.90
2018-05-29T05:53:32.667Z,46.80
2018-05-29T05:54:04.699Z,46.90
2018-05-29T05:54:36.741Z,46.80
2018-05-29T05:55:08.810Z,46.50
2018-05-29T05:55:40.837Z,46.60
2018-05-29T05:56:12.858Z,46.40
2018-05-29T05:56:45.643Z,46.50
2018-05-29T05:57:17.666Z,46.50
2018-05-29T05:57:49.703Z,46.50
2018-05-29T05:58:21.737Z,46.70
2018-05-29T05:58:53.763Z,46.50
2018-05-29T05:59:26.031Z,46.40
2018-05-29T05:59:58.796Z,46.20
2018-05-29T06:00:30.814Z,46.10
2018-05-29T06:01:02.847Z,46.10
2018-05-29T06:01:34.900Z,46.30
2018-05-29T06:02:06.939Z,46.30
2018-05-29T06:02:38.970Z,46.90
2018-05-29T06:03:10.995Z,46.00
2018-05-29T06:03:43.020Z,45.90
2018-05-29T06:04:15.808Z,45.70
2018-05-29T06:04:47.829Z,45.60
2018-05-29T06:05:20.628Z,45.70
2018-05-29T06:05:52.662Z,45.70
2018-05-29T06:06:25.483Z,45.70
2018-05-29T06:06:57.506Z,45.70
2018-05-29T06:07:29.783Z,45.70
2018-05-29T06:08:01.874Z,45.70
2018-05-29T06:08:33.903Z,45.70
2018-05-29T06:09:05.950Z,45.70
2018-05-29T06:09:37.990Z,45.50
2018-05-29T06:10:10.033Z,45.50
2018-05-29T06:10:42.057Z,45.50
2018-05-29T06:11:14.074Z,45.60
2018-05-29T06:11:46.114Z,45.40
2018-05-29T06:12:18.161Z,45.80
2018-05-29T06:12:50.188Z,45.60
2018-05-29T06:13:22.200Z,45.60
2018-05-29T06:13:54.989Z,45.10
2018-05-29T06:14:27.031Z,45.00
2018-05-29T06:14:59.830Z,44.80
2018-05-29T06:15:31.865Z,44.80
2018-05-29T06:16:03.884Z,44.80
2018-05-29T06:16:36.701Z,44.60
2018-05-29T06:17:08.717Z,44.50
2018-05-29T06:17:41.522Z,44.60
2018-05-29T06:18:13.551Z,44.60
2018-05-29T06:18:45.582Z,44.70
2018-05-29T06:19:18.391Z,44.40
2018-05-29T06:19:50.423Z,44.40
2018-05-29T06:20:22.469Z,44.40
2018-05-29T06:20:54.497Z,44.30
2018-05-29T06:21:27.285Z,44.00
2018-05-29T06:21:59.333Z,44.00
2018-05-29T06:22:31.357Z,44.10
2018-05-29T06:23:03.383Z,44.30
2018-05-29T06:23:35.407Z,44.00
2018-05-29T06:24:07.429Z,43.70
2018-05-29T06:24:40.228Z,43.90
2018-05-29T06:25:12.247Z,43.90
2018-05-29T06:25:45.033Z,43.80
2018-05-29T06:26:17.059Z,43.80
2018-05-29T06:26:49.872Z,43.90
2018-05-29T06:27:21.890Z,43.80
2018-05-29T06:27:54.705Z,43.80
2018-05-29T06:28:26.723Z,43.80
2018-05-29T06:28:58.744Z,43.70
2018-05-29T06:29:30.765Z,43.70
2018-05-29T06:30:02.810Z,43.60
2018-05-29T06:30:34.832Z,43.50
2018-05-29T06:31:06.864Z,43.50
2018-05-29T06:31:39.700Z,43.50
2018-05-29T06:32:11.717Z,43.40
2018-05-29T06:32:43.788Z,43.20
2018-05-29T06:33:16.518Z,43.50
2018-05-29T06:33:48.535Z,43.50
2018-05-29T06:34:20.596Z,43.40
2018-05-29T06:34:52.613Z,43.40
2018-05-29T06:35:24.627Z,43.10
2018-05-29T06:35:56.674Z,43.20
2018-05-29T06:36:28.697Z,43.40
2018-05-29T06:37:00.725Z,43.40
2018-05-29T06:37:32.751Z,43.40
2018-05-29T06:38:04.799Z,44.10
2018-05-29T06:38:36.902Z,44.00
2018-05-29T06:39:09.042Z,43.20
2018-05-29T06:39:41.089Z,43.30
2018-05-29T06:40:13.099Z,43.30
2018-05-29T06:40:45.125Z,43.30
2018-05-29T06:41:17.938Z,43.10
2018-05-29T06:41:49.963Z,43.00
2018-05-29T06:42:22.016Z,42.90
2018-05-29T06:42:54.048Z,42.60
2018-05-29T06:43:26.837Z,42.20
2018-05-29T06:43:58.870Z,42.20
2018-05-29T06:44:31.657Z,41.60
2018-05-29T06:45:03.734Z,41.60
2018-05-29T06:45:35.731Z,41.50
2018-05-29T06:46:08.529Z,41.20
2018-05-29T06:46:40.572Z,41.20
2018-05-29T06:47:13.344Z,41.30
2018-05-29T06:47:45.368Z,41.20
2018-05-29T06:48:18.168Z,41.30
2018-05-29T06:48:50.202Z,41.20
2018-05-29T06:49:23.003Z,41.30
2018-05-29T06:49:55.040Z,41.30
2018-05-29T06:50:27.080Z,41.10
2018-05-29T06:50:59.872Z,41.10
2018-05-29T06:51:31.884Z,41.00
2018-05-29T06:52:04.685Z,41.10
2018-05-29T06:52:36.718Z,41.80
2018-05-29T06:53:09.522Z,41.20
2018-05-29T06:53:41.548Z,41.10
2018-05-29T06:54:13.578Z,41.10
2018-05-29T06:54:46.397Z,41.40